FW1946 Weather Reports


Display with metric or nautical units.
time (UTC)temp
F
wind
direction
speed
MPH
gust
MPH
rain 1hr
in
rain 24hr
in
rain mn
in
humidity
%
barometer
mb
20210928083029 45 179 0.0 0.0 0.00 0.09 0.00 96 1014.6
20210928081525 45 202 0.0 0.0 0.00 0.09 0.00 96 1014.6
20210928080033 46 202 0.0 0.0 0.00 0.09 0.00 96 1014.6
20210928074530 46 215 0.0 0.0 0.00 0.09 0.00 95 1014.6
20210928073027 46 292 0.0 0.0 0.00 0.09 0.00 95 1014.9
20210928071526 46 292 0.0 0.0 0.00 0.09 0.00 95 1014.6
20210928070035 46 190 0.0 0.0 0.00 0.09 0.00 94 1014.6
20210928064528 46 195 0.0 0.0 0.00 0.09 0.09 93 1014.3
20210928063035 46 178 0.0 0.0 0.00 0.09 0.09 93 1014.3
20210928061525 47 157 0.0 0.0 0.00 0.09 0.09 92 1014.3
20210928060029 48 181 0.0 0.0 0.00 0.09 0.09 91 1013.9
20210928054547 48 163 0.0 0.0 0.00 0.09 0.09 90 1013.9
20210928053027 49 204 0.0 0.0 0.00 0.09 0.09 89 1013.9
20210928051526 50 259 0.0 0.0 0.00 0.09 0.09 89 1013.9
20210928050030 51 215 1.0 0.0 0.00 0.09 0.09 89 1013.6
20210928044527 51 189 1.0 0.0 0.00 0.09 0.09 90 1013.6
20210928043028 51 178 1.0 0.0 0.00 0.09 0.09 92 1013.9
20210928041526 51 180 0.0 0.0 0.00 0.09 0.09 92 1013.6
20210928040030 51 180 0.0 0.0 0.00 0.09 0.09 91 1013.2
20210928034531 52 178 0.0 0.0 0.00 0.09 0.09 91 1012.9
20210928033028 52 226 0.0 0.0 0.00 0.09 0.09 90 1012.2
20210928031535 53 215 0.0 0.0 0.00 0.09 0.09 90 1012.2
20210928030028 53 242 0.0 0.0 0.00 0.09 0.09 89 1012.2
20210928024526 53 276 0.0 0.0 0.00 0.09 0.09 89 1012.2
20210928023025 53 297 0.0 0.0 0.00 0.09 0.09 89 1012.5
20210928021527 53 200 0.0 0.0 0.00 0.09 0.09 90 1012.9
20210928020027 54 240 0.0 0.0 0.00 0.09 0.09 89 1012.2
20210928014537 54 290 0.0 0.0 0.00 0.09 0.09 88 1011.9
20210928013029 54 309 0.0 0.0 0.00 0.09 0.09 88 1011.5
20210928011530 55 299 2.0 0.0 0.00 0.09 0.09 88 1011.5
20210928010031 55 286 0.0 0.0 0.00 0.09 0.09 90 1011.9
20210928004532 55 242 0.0 0.0 0.00 0.09 0.09 91 1012.2
20210928003027 55 226 0.0 0.0 0.00 0.09 0.09 92 1011.9
20210928001525 55 225 0.0 0.0 0.00 0.09 0.09 92 1011.5
20210928000031 55 225 0.0 0.0 0.01 0.09 0.09 91 1011.2
20210927234530 55 246 0.0 0.0 0.01 0.09 0.09 90 1011.2
20210927233058 55 247 0.0 0.0 0.01 0.09 0.09 87 1011.5
20210927230030 56 272 0.0 0.0 0.00 0.08 0.08 86 1011.2
20210927224525 56 272 1.0 0.0 0.00 0.08 0.08 85 1011.2
20210927223028 57 279 1.0 0.0 0.00 0.08 0.08 85 1011.2
20210927221527 57 292 1.0 0.0 0.01 0.08 0.08 85 1011.2
20210927220027 57 318 1.0 0.0 0.01 0.08 0.08 85 1011.2
20210927214530 56 289 0.0 0.0 0.01 0.08 0.08 86 1011.2
20210927213030 56 300 1.0 0.0 0.01 0.08 0.08 85 1010.8
20210927211527 57 297 1.0 0.0 0.00 0.07 0.07 85 1010.5
20210927210029 57 324 1.0 0.0 0.00 0.07 0.07 85 1010.8
20210927204529 57 337 1.0 0.0 0.00 0.07 0.07 85 1010.8
20210927203035 58 301 1.0 0.0 0.00 0.07 0.07 84 1011.2
20210927201527 58 298 1.0 0.0 0.00 0.07 0.07 85 1010.8
20210927200040 57 294 0.0 0.0 0.00 0.07 0.07 85 1011.2
20210927194528 58 290 0.0 0.0 0.00 0.07 0.07 86 1011.2
20210927193027 57 320 1.0 0.0 0.00 0.07 0.07 86 1010.8
20210927191534 57 297 0.0 0.0 0.01 0.07 0.07 86 1011.2
20210927190025 57 290 0.0 0.0 0.01 0.07 0.07 87 1011.2
20210927184528 57 249 1.0 0.0 0.01 0.07 0.07 88 1011.5
20210927183042 57 248 0.0 0.0 0.01 0.07 0.07 88 1011.5
20210927181539 57 285 0.0 0.0 0.00 0.06 0.06 88 1011.2
20210927180027 56 309 0.0 0.0 0.00 0.06 0.06 89 1011.5
20210927174533 56 287 0.0 0.0 0.01 0.06 0.06 89 1011.5
20210927173027 57 286 0.0 0.0 0.01 0.06 0.06 89 1011.5
20210927171526 57 285 0.0 0.0 0.01 0.06 0.06 89 1011.5
20210927170028 56 274 1.0 0.0 0.01 0.06 0.06 89 1011.9
20210927164530 56 270 0.0 0.0 0.00 0.05 0.05 90 1011.9
20210927163025 56 305 0.0 0.0 0.01 0.05 0.05 90 1011.5
20210927161532 56 288 0.0 0.0 0.01 0.05 0.05 90 1011.2
20210927160035 55 290 0.0 0.0 0.03 0.05 0.05 90 1011.2
20210927154528 55 298 1.0 0.0 0.03 0.05 0.05 89 1010.8
20210927153026 55 318 1.0 0.0 0.02 0.04 0.04 88 1010.8
20210927151526 56 292 1.0 0.0 0.03 0.04 0.04 84 1010.8
20210927150025 57 304 2.0 0.0 0.01 0.02 0.02 85 1010.8
20210927144526 57 317 2.0 0.0 0.01 0.02 0.02 86 1010.5
20210927143027 57 314 3.0 0.0 0.01 0.02 0.02 87 1010.5
20210927141527 57 260 1.0 0.0 0.00 0.01 0.01 89 1010.1
20210927140041 57 253 1.0 0.0 0.00 0.01 0.01 89 1010.1
20210927134527 57 247 2.0 0.0 0.00 0.01 0.01 88 1010.1
20210927133030 58 263 1.0 0.0 0.00 0.01 0.01 88 1010.1
20210927131526 58 265 3.0 0.0 0.00 0.01 0.01 89 1010.1
20210927130034 58 273 2.0 0.0 0.00 0.01 0.01 92 1010.1
20210927124527 57 268 2.0 0.0 0.00 0.01 0.01 96 1009.8
20210927123038 56 172 0.0 0.0 0.00 0.01 0.01 96 1009.5
20210927121536 56 157 0.0 0.0 0.00 0.01 0.01 96 1009.5
20210927120057 55 247 0.0 0.0 0.00 0.01 0.01 96 1009.5
20210927113030 55 247 0.0 0.0 0.00 0.01 0.01 96 1009.5
20210927111533 56 247 0.0 0.0 0.00 0.01 0.01 96 1009.8
20210927110031 56 253 0.0 0.0 0.00 0.01 0.01 95 1009.5
20210927104530 56 205 0.0 0.0 0.01 0.01 0.01 95 1009.8
20210927103029 56 211 0.0 0.0 0.01 0.01 0.01 95 1009.8
20210927101525 56 225 0.0 0.0 0.01 0.01 0.01 94 1009.8
20210927100032 56 225 0.0 0.0 0.01 0.01 0.01 94 1009.8
20210927094527 56 225 0.0 0.0 0.00 0.00 0.00 94 1010.1
20210927093028 57 225 0.0 0.0 0.00 0.00 0.00 94 1010.1
20210927091529 58 215 0.0 0.0 0.00 0.00 0.00 94 1010.1
20210927090029 58 202 0.0 0.0 0.00 0.00 0.00 94 1010.1
20210927084542 58 202 0.0 0.0 0.00 0.00 0.00 93 1009.8